sensor_id;sensor_type;location;lat;lon;timestamp;temperature;humidity
15143;DHT22;7672;50.834;6.286;2022-07-04T00:00:15;18.70;99.90
15143;DHT22;7672;50.834;6.286;2022-07-04T00:02:44;18.70;99.90
15143;DHT22;7672;50.834;6.286;2022-07-04T00:05:13;18.70;99.90
15143;DHT22;7672;50.834;6.286;2022-07-04T00:07:42;18.70;99.90
15143;DHT22;7672;50.834;6.286;2022-07-04T00:10:12;18.70;99.90
15143;DHT22;7672;50.834;6.286;2022-07-04T00:12:40;18.60;99.90
15143;DHT22;7672;50.834;6.286;2022-07-04T00:15:08;18.60;99.90
15143;DHT22;7672;50.834;6.286;2022-07-04T00:17:36;18.60;99.90
15143;DHT22;7672;50.834;6.286;2022-07-04T00:20:07;18.60;99.90
15143;DHT22;7672;50.834;6.286;2022-07-04T00:22:35;18.60;99.90
15143;DHT22;7672;50.834;6.286;2022-07-04T00:25:03;18.50;99.90
15143;DHT22;7672;50.834;6.286;2022-07-04T00:27:31;18.50;99.90
15143;DHT22;7672;50.834;6.286;2022-07-04T00:29:57;18.50;99.90
15143;DHT22;7672;50.834;6.286;2022-07-04T00:32:24;18.40;99.90
15143;DHT22;7672;50.834;6.286;2022-07-04T00:34:51;18.30;99.90
15143;DHT22;7672;50.834;6.286;2022-07-04T00:37:18;18.30;99.90
15143;DHT22;7672;50.834;6.286;2022-07-04T00:39:45;18.30;99.90
15143;DHT22;7672;50.834;6.286;2022-07-04T00:42:11;18.20;99.90
15143;DHT22;7672;50.834;6.286;2022-07-04T00:44:39;18.20;99.90
15143;DHT22;7672;50.834;6.286;2022-07-04T00:47:06;18.20;99.90
15143;DHT22;7672;50.834;6.286;2022-07-04T00:49:34;18.20;99.90
15143;DHT22;7672;50.834;6.286;2022-07-04T00:52:01;18.20;99.90
15143;DHT22;7672;50.834;6.286;2022-07-04T00:54:31;18.10;99.90
15143;DHT22;7672;50.834;6.286;2022-07-04T00:56:59;18.10;99.90
15143;DHT22;7672;50.834;6.286;2022-07-04T00:59:27;18.10;99.90
15143;DHT22;7672;50.834;6.286;2022-07-04T01:01:55;18.10;99.90
15143;DHT22;7672;50.834;6.286;2022-07-04T01:04:22;18.10;99.90
15143;DHT22;7672;50.834;6.286;2022-07-04T01:06:50;18.00;99.90
15143;DHT22;7672;50.834;6.286;2022-07-04T01:09:19;18.00;99.90
15143;DHT22;7672;50.834;6.286;2022-07-04T01:11:49;18.00;99.90
15143;DHT22;7672;50.834;6.286;2022-07-04T01:14:17;18.00;99.90
15143;DHT22;7672;50.834;6.286;2022-07-04T01:16:45;18.20;99.90
15143;DHT22;7672;50.834;6.286;2022-07-04T01:19:11;18.00;99.90
15143;DHT22;7672;50.834;6.286;2022-07-04T01:21:39;18.00;99.90
15143;DHT22;7672;50.834;6.286;2022-07-04T01:24:06;18.00;99.90
15143;DHT22;7672;50.834;6.286;2022-07-04T01:26:33;18.00;99.90
15143;DHT22;7672;50.834;6.286;2022-07-04T01:29:00;18.00;99.90
15143;DHT22;7672;50.834;6.286;2022-07-04T01:31:27;18.00;99.90
15143;DHT22;7672;50.834;6.286;2022-07-04T01:33:54;18.00;99.90
15143;DHT22;7672;50.834;6.286;2022-07-04T01:36:20;17.90;99.90
15143;DHT22;7672;50.834;6.286;2022-07-04T01:38:47;18.00;99.90
15143;DHT22;7672;50.834;6.286;2022-07-04T01:41:14;17.90;99.90
15143;DHT22;7672;50.834;6.286;2022-07-04T01:43:41;17.90;99.90
15143;DHT22;7672;50.834;6.286;2022-07-04T01:46:08;17.80;99.90
15143;DHT22;7672;50.834;6.286;2022-07-04T01:48:34;17.80;99.90
15143;DHT22;7672;50.834;6.286;2022-07-04T01:51:01;17.80;99.90
15143;DHT22;7672;50.834;6.286;2022-07-04T01:53:28;17.80;99.90
15143;DHT22;7672;50.834;6.286;2022-07-04T01:55:55;17.70;99.90
15143;DHT22;7672;50.834;6.286;2022-07-04T01:58:22;17.70;99.90
15143;DHT22;7672;50.834;6.286;2022-07-04T02:00:48;17.70;99.90
15143;DHT22;7672;50.834;6.286;2022-07-04T02:03:34;17.70;99.90
15143;DHT22;7672;50.834;6.286;2022-07-04T02:06:01;17.70;99.90
15143;DHT22;7672;50.834;6.286;2022-07-04T02:08:28;17.70;99.90
15143;DHT22;7672;50.834;6.286;2022-07-04T02:11:14;17.70;99.90
15143;DHT22;7672;50.834;6.286;2022-07-04T02:13:41;17.60;99.90
15143;DHT22;7672;50.834;6.286;2022-07-04T02:16:08;17.60;99.90
15143;DHT22;7672;50.834;6.286;2022-07-04T02:18:35;17.60;99.90
15143;DHT22;7672;50.834;6.286;2022-07-04T02:21:01;17.60;99.90
15143;DHT22;7672;50.834;6.286;2022-07-04T02:23:28;17.60;99.90
15143;DHT22;7672;50.834;6.286;2022-07-04T02:25:55;17.50;99.90
15143;DHT22;7672;50.834;6.286;2022-07-04T02:28:22;17.50;99.90
15143;DHT22;7672;50.834;6.286;2022-07-04T02:30:49;17.40;99.90
15143;DHT22;7672;50.834;6.286;2022-07-04T02:33:16;17.30;99.90
15143;DHT22;7672;50.834;6.286;2022-07-04T02:35:42;17.30;99.90
15143;DHT22;7672;50.834;6.286;2022-07-04T02:38:09;17.20;99.90
15143;DHT22;7672;50.834;6.286;2022-07-04T02:40:36;17.10;99.90
15143;DHT22;7672;50.834;6.286;2022-07-04T02:43:03;17.10;99.90
15143;DHT22;7672;50.834;6.286;2022-07-04T02:45:29;17.00;99.90
15143;DHT22;7672;50.834;6.286;2022-07-04T02:47:56;16.90;99.90
15143;DHT22;7672;50.834;6.286;2022-07-04T02:50:23;16.90;99.90
15143;DHT22;7672;50.834;6.286;2022-07-04T02:52:50;16.80;99.90
15143;DHT22;7672;50.834;6.286;2022-07-04T02:55:17;16.80;99.90
15143;DHT22;7672;50.834;6.286;2022-07-04T02:57:46;16.70;99.90
15143;DHT22;7672;50.834;6.286;2022-07-04T03:00:13;16.70;99.90
15143;DHT22;7672;50.834;6.286;2022-07-04T03:02:40;16.70;99.90
15143;DHT22;7672;50.834;6.286;2022-07-04T03:05:07;16.70;99.90
15143;DHT22;7672;50.834;6.286;2022-07-04T03:07:34;16.60;99.90
15143;DHT22;7672;50.834;6.286;2022-07-04T03:10:01;16.60;99.90
15143;DHT22;7672;50.834;6.286;2022-07-04T03:12:28;16.60;99.90
15143;DHT22;7672;50.834;6.286;2022-07-04T03:14:56;16.50;99.90
15143;DHT22;7672;50.834;6.286;2022-07-04T03:17:25;16.50;99.90
15143;DHT22;7672;50.834;6.286;2022-07-04T03:19:52;16.50;99.90
15143;DHT22;7672;50.834;6.286;2022-07-04T03:22:19;16.50;99.90
15143;DHT22;7672;50.834;6.286;2022-07-04T03:24:46;16.50;99.90
15143;DHT22;7672;50.834;6.286;2022-07-04T03:27:13;16.50;99.90
15143;DHT22;7672;50.834;6.286;2022-07-04T03:29:40;16.40;99.90
15143;DHT22;7672;50.834;6.286;2022-07-04T03:32:07;16.40;99.90
15143;DHT22;7672;50.834;6.286;2022-07-04T03:34:34;16.40;99.90
15143;DHT22;7672;50.834;6.286;2022-07-04T03:37:02;16.40;99.90
15143;DHT22;7672;50.834;6.286;2022-07-04T03:39:29;16.40;99.90
15143;DHT22;7672;50.834;6.286;2022-07-04T03:41:55;16.30;99.90
15143;DHT22;7672;50.834;6.286;2022-07-04T03:44:22;16.30;99.90
15143;DHT22;7672;50.834;6.286;2022-07-04T03:46:49;16.30;99.90
15143;DHT22;7672;50.834;6.286;2022-07-04T03:49:16;16.20;99.90
15143;DHT22;7672;50.834;6.286;2022-07-04T03:51:42;16.20;99.90
15143;DHT22;7672;50.834;6.286;2022-07-04T03:54:09;16.20;99.90
15143;DHT22;7672;50.834;6.286;2022-07-04T03:56:43;16.20;99.90
15143;DHT22;7672;50.834;6.286;2022-07-04T03:59:09;16.20;99.90
15143;DHT22;7672;50.834;6.286;2022-07-04T04:01:36;16.20;99.90
15143;DHT22;7672;50.834;6.286;2022-07-04T04:04:03;16.20;99.90
15143;DHT22;7672;50.834;6.286;2022-07-04T04:06:48;16.20;99.90
15143;DHT22;7672;50.834;6.286;2022-07-04T04:09:15;16.30;99.90
15143;DHT22;7672;50.834;6.286;2022-07-04T04:11:45;16.40;99.90
15143;DHT22;7672;50.834;6.286;2022-07-04T04:14:13;16.40;99.90
15143;DHT22;7672;50.834;6.286;2022-07-04T04:16:40;16.60;99.90
15143;DHT22;7672;50.834;6.286;2022-07-04T04:19:10;16.70;99.90
15143;DHT22;7672;50.834;6.286;2022-07-04T04:21:37;16.80;99.90
15143;DHT22;7672;50.834;6.286;2022-07-04T04:24:04;17.00;99.90
15143;DHT22;7672;50.834;6.286;2022-07-04T04:26:31;17.10;99.90
15143;DHT22;7672;50.834;6.286;2022-07-04T04:28:58;17.30;99.90
15143;DHT22;7672;50.834;6.286;2022-07-04T04:31:25;17.40;99.90
15143;DHT22;7672;50.834;6.286;2022-07-04T04:33:52;17.60;99.90
15143;DHT22;7672;50.834;6.286;2022-07-04T04:36:19;17.80;99.90
15143;DHT22;7672;50.834;6.286;2022-07-04T04:38:45;18.00;99.90
15143;DHT22;7672;50.834;6.286;2022-07-04T04:41:12;18.10;99.90
15143;DHT22;7672;50.834;6.286;2022-07-04T04:43:39;18.30;99.90
15143;DHT22;7672;50.834;6.286;2022-07-04T04:46:06;18.40;99.90
15143;DHT22;7672;50.834;6.286;2022-07-04T04:48:33;18.50;99.90
15143;DHT22;7672;50.834;6.286;2022-07-04T04:50:59;18.70;99.90
15143;DHT22;7672;50.834;6.286;2022-07-04T04:53:34;18.90;99.90
15143;DHT22;7672;50.834;6.286;2022-07-04T04:56:01;19.00;99.90
15143;DHT22;7672;50.834;6.286;2022-07-04T04:58:28;19.10;99.90
15143;DHT22;7672;50.834;6.286;2022-07-04T05:00:55;19.20;99.90
15143;DHT22;7672;50.834;6.286;2022-07-04T05:03:41;19.30;99.90
15143;DHT22;7672;50.834;6.286;2022-07-04T05:06:09;19.30;99.90
15143;DHT22;7672;50.834;6.286;2022-07-04T05:08:36;19.40;99.90
15143;DHT22;7672;50.834;6.286;2022-07-04T05:11:03;19.40;99.90
15143;DHT22;7672;50.834;6.286;2022-07-04T05:13:30;19.50;99.90
15143;DHT22;7672;50.834;6.286;2022-07-04T05:15:56;19.60;99.90
15143;DHT22;7672;50.834;6.286;2022-07-04T05:18:23;19.80;99.90
15143;DHT22;7672;50.834;6.286;2022-07-04T05:20:50;19.90;99.90
15143;DHT22;7672;50.834;6.286;2022-07-04T05:23:17;20.10;99.90
15143;DHT22;7672;50.834;6.286;2022-07-04T05:25:44;20.40;99.90
15143;DHT22;7672;50.834;6.286;2022-07-04T05:28:11;20.60;99.90
15143;DHT22;7672;50.834;6.286;2022-07-04T05:30:37;20.80;99.90
15143;DHT22;7672;50.834;6.286;2022-07-04T05:33:04;21.10;99.90
15143;DHT22;7672;50.834;6.286;2022-07-04T05:35:31;21.30;99.90
15143;DHT22;7672;50.834;6.286;2022-07-04T05:37:58;21.60;99.90
15143;DHT22;7672;50.834;6.286;2022-07-04T05:40:25;21.80;99.90
15143;DHT22;7672;50.834;6.286;2022-07-04T05:42:54;22.00;99.90
15143;DHT22;7672;50.834;6.286;2022-07-04T05:45:21;22.50;99.90
15143;DHT22;7672;50.834;6.286;2022-07-04T05:47:48;22.70;99.90
15143;DHT22;7672;50.834;6.286;2022-07-04T05:50:14;22.70;99.90
15143;DHT22;7672;50.834;6.286;2022-07-04T05:52:41;23.00;99.90
15143;DHT22;7672;50.834;6.286;2022-07-04T05:55:08;23.20;99.90
15143;DHT22;7672;50.834;6.286;2022-07-04T05:57:36;23.40;99.90
15143;DHT22;7672;50.834;6.286;2022-07-04T06:00:10;23.70;99.90
15143;DHT22;7672;50.834;6.286;2022-07-04T06:02:38;23.90;99.90
15143;DHT22;7672;50.834;6.286;2022-07-04T06:05:05;24.20;99.90
15143;DHT22;7672;50.834;6.286;2022-07-04T06:07:32;24.40;99.90
15143;DHT22;7672;50.834;6.286;2022-07-04T06:09:59;24.70;99.90
15143;DHT22;7672;50.834;6.286;2022-07-04T06:12:26;24.80;99.90
15143;DHT22;7672;50.834;6.286;2022-07-04T06:14:53;25.00;99.90
15143;DHT22;7672;50.834;6.286;2022-07-04T06:17:19;25.20;99.90
15143;DHT22;7672;50.834;6.286;2022-07-04T06:19:47;25.50;99.90
15143;DHT22;7672;50.834;6.286;2022-07-04T06:22:14;25.60;99.90
15143;DHT22;7672;50.834;6.286;2022-07-04T06:24:41;25.80;99.90
15143;DHT22;7672;50.834;6.286;2022-07-04T06:27:08;26.00;99.90
15143;DHT22;7672;50.834;6.286;2022-07-04T06:29:35;26.20;99.90
15143;DHT22;7672;50.834;6.286;2022-07-04T06:32:02;26.30;99.90
15143;DHT22;7672;50.834;6.286;2022-07-04T06:34:29;26.50;99.90
15143;DHT22;7672;50.834;6.286;2022-07-04T06:37:15;26.60;99.90
15143;DHT22;7672;50.834;6.286;2022-07-04T06:39:42;26.70;99.90
15143;DHT22;7672;50.834;6.286;2022-07-04T06:42:08;27.00;99.90
15143;DHT22;7672;50.834;6.286;2022-07-04T06:44:35;26.80;99.90
15143;DHT22;7672;50.834;6.286;2022-07-04T06:47:02;27.10;99.90
15143;DHT22;7672;50.834;6.286;2022-07-04T06:49:29;27.30;99.90
15143;DHT22;7672;50.834;6.286;2022-07-04T06:51:56;27.50;99.90
15143;DHT22;7672;50.834;6.286;2022-07-04T06:54:22;27.80;99.60
15143;DHT22;7672;50.834;6.286;2022-07-04T06:56:50;27.80;98.60
15143;DHT22;7672;50.834;6.286;2022-07-04T06:59:37;28.20;98.10
15143;DHT22;7672;50.834;6.286;2022-07-04T07:02:04;28.20;98.50
15143;DHT22;7672;50.834;6.286;2022-07-04T07:04:31;28.30;97.90
15143;DHT22;7672;50.834;6.286;2022-07-04T07:06:57;28.50;97.80
15143;DHT22;7672;50.834;6.286;2022-07-04T07:09:24;28.60;97.00
15143;DHT22;7672;50.834;6.286;2022-07-04T07:11:51;28.80;96.50
15143;DHT22;7672;50.834;6.286;2022-07-04T07:14:18;29.00;96.30
15143;DHT22;7672;50.834;6.286;2022-07-04T07:16:44;29.10;96.30
15143;DHT22;7672;50.834;6.286;2022-07-04T07:19:11;29.20;96.50
15143;DHT22;7672;50.834;6.286;2022-07-04T07:21:38;29.40;96.50
15143;DHT22;7672;50.834;6.286;2022-07-04T07:24:05;29.60;94.70
15143;DHT22;7672;50.834;6.286;2022-07-04T07:26:32;29.70;94.90
15143;DHT22;7672;50.834;6.286;2022-07-04T07:28:59;29.90;93.50
15143;DHT22;7672;50.834;6.286;2022-07-04T07:31:25;30.10;93.50
15143;DHT22;7672;50.834;6.286;2022-07-04T07:33:52;30.20;94.20
15143;DHT22;7672;50.834;6.286;2022-07-04T07:36:19;30.40;93.40
15143;DHT22;7672;50.834;6.286;2022-07-04T07:38:46;30.60;92.50
15143;DHT22;7672;50.834;6.286;2022-07-04T07:41:13;30.70;92.70
15143;DHT22;7672;50.834;6.286;2022-07-04T07:43:39;31.00;92.10
15143;DHT22;7672;50.834;6.286;2022-07-04T07:46:08;31.20;91.30
15143;DHT22;7672;50.834;6.286;2022-07-04T07:48:35;31.40;91.00
15143;DHT22;7672;50.834;6.286;2022-07-04T07:51:02;31.70;90.20
15143;DHT22;7672;50.834;6.286;2022-07-04T07:53:29;32.00;90.60
15143;DHT22;7672;50.834;6.286;2022-07-04T07:55:56;32.20;88.90
15143;DHT22;7672;50.834;6.286;2022-07-04T07:58:23;32.60;86.90
15143;DHT22;7672;50.834;6.286;2022-07-04T08:00:50;32.90;87.70
15143;DHT22;7672;50.834;6.286;2022-07-04T08:03:21;33.20;86.60
15143;DHT22;7672;50.834;6.286;2022-07-04T08:06:07;33.50;84.10
15143;DHT22;7672;50.834;6.286;2022-07-04T08:08:33;33.90;82.90
15143;DHT22;7672;50.834;6.286;2022-07-04T08:11:00;34.30;82.20
15143;DHT22;7672;50.834;6.286;2022-07-04T08:13:28;34.60;80.30
15143;DHT22;7672;50.834;6.286;2022-07-04T08:15:56;34.90;78.70
15143;DHT22;7672;50.834;6.286;2022-07-04T08:18:24;35.20;76.60
15143;DHT22;7672;50.834;6.286;2022-07-04T08:20:51;35.50;75.60
15143;DHT22;7672;50.834;6.286;2022-07-04T08:23:29;35.80;75.30
15143;DHT22;7672;50.834;6.286;2022-07-04T08:25:59;36.20;73.60
15143;DHT22;7672;50.834;6.286;2022-07-04T08:28:27;36.50;73.10
15143;DHT22;7672;50.834;6.286;2022-07-04T08:30:55;36.80;71.00
15143;DHT22;7672;50.834;6.286;2022-07-04T08:33:26;37.10;69.90
15143;DHT22;7672;50.834;6.286;2022-07-04T08:35:58;37.40;69.70
15143;DHT22;7672;50.834;6.286;2022-07-04T08:38:25;37.70;67.90
15143;DHT22;7672;50.834;6.286;2022-07-04T08:40:56;37.90;68.10
15143;DHT22;7672;50.834;6.286;2022-07-04T08:43:25;38.20;67.00
15143;DHT22;7672;50.834;6.286;2022-07-04T08:45:54;38.40;63.90
15143;DHT22;7672;50.834;6.286;2022-07-04T08:48:42;38.70;63.30
15143;DHT22;7672;50.834;6.286;2022-07-04T08:51:14;38.90;61.90
15143;DHT22;7672;50.834;6.286;2022-07-04T08:53:49;39.10;61.00
15143;DHT22;7672;50.834;6.286;2022-07-04T08:56:19;39.20;60.00
15143;DHT22;7672;50.834;6.286;2022-07-04T08:59:05;39.40;61.80
15143;DHT22;7672;50.834;6.286;2022-07-04T09:01:33;39.40;59.70
15143;DHT22;7672;50.834;6.286;2022-07-04T09:04:02;39.60;59.70
15143;DHT22;7672;50.834;6.286;2022-07-04T09:06:31;39.50;58.50
15143;DHT22;7672;50.834;6.286;2022-07-04T09:08:58;39.30;57.80
15143;DHT22;7672;50.834;6.286;2022-07-04T09:11:25;39.10;57.20
15143;DHT22;7672;50.834;6.286;2022-07-04T09:13:52;38.70;58.90
15143;DHT22;7672;50.834;6.286;2022-07-04T09:16:19;38.40;58.70
15143;DHT22;7672;50.834;6.286;2022-07-04T09:18:46;38.20;58.50
15143;DHT22;7672;50.834;6.286;2022-07-04T09:21:13;38.00;58.10
15143;DHT22;7672;50.834;6.286;2022-07-04T09:23:41;37.80;59.90
15143;DHT22;7672;50.834;6.286;2022-07-04T09:26:15;37.80;59.60
15143;DHT22;7672;50.834;6.286;2022-07-04T09:31:21;38.00;58.60
15143;DHT22;7672;50.834;6.286;2022-07-04T09:36:23;38.40;58.70
15143;DHT22;7672;50.834;6.286;2022-07-04T09:44:27;39.20;58.40
15143;DHT22;7672;50.834;6.286;2022-07-04T09:47:24;39.30;56.50
15143;DHT22;7672;50.834;6.286;2022-07-04T09:50:00;39.50;54.90
15143;DHT22;7672;50.834;6.286;2022-07-04T09:52:32;39.70;55.70
15143;DHT22;7672;50.834;6.286;2022-07-04T09:55:33;39.80;55.10
15143;DHT22;7672;50.834;6.286;2022-07-04T09:58:05;39.90;56.50
15143;DHT22;7672;50.834;6.286;2022-07-04T10:00:38;39.90;55.20
15143;DHT22;7672;50.834;6.286;2022-07-04T10:05:42;39.80;55.00
15143;DHT22;7672;50.834;6.286;2022-07-04T10:08:12;39.70;54.60
15143;DHT22;7672;50.834;6.286;2022-07-04T10:10:39;39.60;55.50
15143;DHT22;7672;50.834;6.286;2022-07-04T10:13:08;39.40;56.70
15143;DHT22;7672;50.834;6.286;2022-07-04T10:15:38;39.30;55.40
15143;DHT22;7672;50.834;6.286;2022-07-04T10:18:08;39.10;56.40
15143;DHT22;7672;50.834;6.286;2022-07-04T10:20:36;39.00;55.90
15143;DHT22;7672;50.834;6.286;2022-07-04T10:23:03;39.00;57.50
15143;DHT22;7672;50.834;6.286;2022-07-04T10:25:31;39.00;57.40
15143;DHT22;7672;50.834;6.286;2022-07-04T10:27:57;39.10;57.40
15143;DHT22;7672;50.834;6.286;2022-07-04T10:30:30;39.20;56.90
15143;DHT22;7672;50.834;6.286;2022-07-04T10:33:07;39.30;56.00
15143;DHT22;7672;50.834;6.286;2022-07-04T10:35:58;39.40;54.70
15143;DHT22;7672;50.834;6.286;2022-07-04T10:38:30;39.60;57.10
15143;DHT22;7672;50.834;6.286;2022-07-04T10:41:02;39.80;56.30
15143;DHT22;7672;50.834;6.286;2022-07-04T10:48:32;39.80;54.50
15143;DHT22;7672;50.834;6.286;2022-07-04T10:51:04;39.80;54.90
15143;DHT22;7672;50.834;6.286;2022-07-04T10:54:00;39.80;55.10
15143;DHT22;7672;50.834;6.286;2022-07-04T10:56:35;39.70;55.40
15143;DHT22;7672;50.834;6.286;2022-07-04T10:59:19;39.70;55.00
15143;DHT22;7672;50.834;6.286;2022-07-04T11:04:59;39.90;53.90
15143;DHT22;7672;50.834;6.286;2022-07-04T11:17:55;39.70;54.40
15143;DHT22;7672;50.834;6.286;2022-07-04T11:20:31;39.70;52.70
15143;DHT22;7672;50.834;6.286;2022-07-04T11:23:11;39.60;54.00
15143;DHT22;7672;50.834;6.286;2022-07-04T11:25:42;39.50;53.20
15143;DHT22;7672;50.834;6.286;2022-07-04T11:28:30;39.50;52.80
15143;DHT22;7672;50.834;6.286;2022-07-04T11:31:12;39.50;52.90
15143;DHT22;7672;50.834;6.286;2022-07-04T11:33:41;39.50;53.30
15143;DHT22;7672;50.834;6.286;2022-07-04T11:36:15;39.50;52.50
15143;DHT22;7672;50.834;6.286;2022-07-04T11:41:11;39.40;52.50
15143;DHT22;7672;50.834;6.286;2022-07-04T11:43:57;39.40;51.70
15143;DHT22;7672;50.834;6.286;2022-07-04T11:46:42;39.40;52.20
15143;DHT22;7672;50.834;6.286;2022-07-04T11:49:10;39.30;53.10
15143;DHT22;7672;50.834;6.286;2022-07-04T11:51:42;39.20;52.30
15143;DHT22;7672;50.834;6.286;2022-07-04T11:54:11;39.10;53.30
15143;DHT22;7672;50.834;6.286;2022-07-04T11:57:20;39.00;52.90
15143;DHT22;7672;50.834;6.286;2022-07-04T12:00:09;38.90;53.30
15143;DHT22;7672;50.834;6.286;2022-07-04T12:02:44;38.90;54.50
15143;DHT22;7672;50.834;6.286;2022-07-04T12:05:15;38.80;52.60
15143;DHT22;7672;50.834;6.286;2022-07-04T12:07:45;38.70;53.10
15143;DHT22;7672;50.834;6.286;2022-07-04T12:10:34;38.70;52.50
15143;DHT22;7672;50.834;6.286;2022-07-04T12:13:07;38.60;54.50
15143;DHT22;7672;50.834;6.286;2022-07-04T12:15:49;38.60;52.50
15143;DHT22;7672;50.834;6.286;2022-07-04T12:18:21;38.50;53.60
15143;DHT22;7672;50.834;6.286;2022-07-04T12:20:52;38.30;55.30
15143;DHT22;7672;50.834;6.286;2022-07-04T12:23:21;38.10;54.20
15143;DHT22;7672;50.834;6.286;2022-07-04T12:25:52;38.00;53.90
15143;DHT22;7672;50.834;6.286;2022-07-04T12:28:19;37.70;53.80
15143;DHT22;7672;50.834;6.286;2022-07-04T12:30:56;37.50;54.60
15143;DHT22;7672;50.834;6.286;2022-07-04T12:33:28;37.10;55.50
15143;DHT22;7672;50.834;6.286;2022-07-04T12:36:00;36.90;55.20
15143;DHT22;7672;50.834;6.286;2022-07-04T12:41:10;36.50;56.50
15143;DHT22;7672;50.834;6.286;2022-07-04T12:46:10;36.30;55.90
15143;DHT22;7672;50.834;6.286;2022-07-04T12:48:49;36.20;56.50
15143;DHT22;7672;50.834;6.286;2022-07-04T12:51:22;36.10;56.80
15143;DHT22;7672;50.834;6.286;2022-07-04T12:53:52;36.00;54.70
15143;DHT22;7672;50.834;6.286;2022-07-04T12:59:02;35.80;55.80
15143;DHT22;7672;50.834;6.286;2022-07-04T13:01:39;35.70;55.60
15143;DHT22;7672;50.834;6.286;2022-07-04T13:04:07;35.60;55.30
15143;DHT22;7672;50.834;6.286;2022-07-04T13:06:34;35.50;54.20
15143;DHT22;7672;50.834;6.286;2022-07-04T13:09:03;35.40;54.50
15143;DHT22;7672;50.834;6.286;2022-07-04T13:11:32;35.20;55.30
15143;DHT22;7672;50.834;6.286;2022-07-04T13:14:18;35.10;54.60
15143;DHT22;7672;50.834;6.286;2022-07-04T13:16:45;34.90;56.20
15143;DHT22;7672;50.834;6.286;2022-07-04T13:19:12;34.80;55.60
15143;DHT22;7672;50.834;6.286;2022-07-04T13:21:39;34.60;56.60
15143;DHT22;7672;50.834;6.286;2022-07-04T13:24:06;34.50;56.60
15143;DHT22;7672;50.834;6.286;2022-07-04T13:26:33;34.40;56.10
15143;DHT22;7672;50.834;6.286;2022-07-04T13:29:00;34.40;56.30
15143;DHT22;7672;50.834;6.286;2022-07-04T13:31:35;34.40;56.80
15143;DHT22;7672;50.834;6.286;2022-07-04T13:34:03;34.40;57.10
15143;DHT22;7672;50.834;6.286;2022-07-04T13:36:29;34.40;56.80
15143;DHT22;7672;50.834;6.286;2022-07-04T13:38:56;34.40;56.10
15143;DHT22;7672;50.834;6.286;2022-07-04T13:41:32;34.50;56.40
15143;DHT22;7672;50.834;6.286;2022-07-04T13:44:01;34.50;56.10
15143;DHT22;7672;50.834;6.286;2022-07-04T13:46:30;34.50;55.50
15143;DHT22;7672;50.834;6.286;2022-07-04T13:49:05;34.50;56.00
15143;DHT22;7672;50.834;6.286;2022-07-04T13:51:42;34.40;56.70
15143;DHT22;7672;50.834;6.286;2022-07-04T13:54:10;34.40;56.70
15143;DHT22;7672;50.834;6.286;2022-07-04T13:56:39;34.40;56.50
15143;DHT22;7672;50.834;6.286;2022-07-04T13:59:06;34.30;56.50
15143;DHT22;7672;50.834;6.286;2022-07-04T14:01:33;34.20;57.30
15143;DHT22;7672;50.834;6.286;2022-07-04T14:04:00;34.10;56.30
15143;DHT22;7672;50.834;6.286;2022-07-04T14:06:27;34.00;56.40
15143;DHT22;7672;50.834;6.286;2022-07-04T14:08:54;34.00;56.70
15143;DHT22;7672;50.834;6.286;2022-07-04T14:11:21;33.90;56.10
15143;DHT22;7672;50.834;6.286;2022-07-04T14:13:48;33.90;56.90
15143;DHT22;7672;50.834;6.286;2022-07-04T14:16:15;33.80;56.30
15143;DHT22;7672;50.834;6.286;2022-07-04T14:18:42;33.80;57.40
15143;DHT22;7672;50.834;6.286;2022-07-04T14:21:09;33.80;57.10
15143;DHT22;7672;50.834;6.286;2022-07-04T14:23:36;33.80;56.50
15143;DHT22;7672;50.834;6.286;2022-07-04T14:26:10;33.80;56.70
15143;DHT22;7672;50.834;6.286;2022-07-04T14:28:39;33.70;55.90
15143;DHT22;7672;50.834;6.286;2022-07-04T14:31:07;33.70;56.50
15143;DHT22;7672;50.834;6.286;2022-07-04T14:33:34;33.60;56.40
15143;DHT22;7672;50.834;6.286;2022-07-04T14:36:05;33.50;56.80
15143;DHT22;7672;50.834;6.286;2022-07-04T14:38:37;33.50;57.50
15143;DHT22;7672;50.834;6.286;2022-07-04T14:41:05;33.40;57.10
15143;DHT22;7672;50.834;6.286;2022-07-04T14:43:43;33.40;56.60
15143;DHT22;7672;50.834;6.286;2022-07-04T14:46:11;33.30;57.30
15143;DHT22;7672;50.834;6.286;2022-07-04T14:48:38;33.30;58.50
15143;DHT22;7672;50.834;6.286;2022-07-04T14:51:06;33.30;58.60
15143;DHT22;7672;50.834;6.286;2022-07-04T14:53:33;33.30;57.70
15143;DHT22;7672;50.834;6.286;2022-07-04T14:56:01;33.30;58.00
15143;DHT22;7672;50.834;6.286;2022-07-04T14:58:28;33.30;58.40
15143;DHT22;7672;50.834;6.286;2022-07-04T15:00:55;33.30;57.40
15143;DHT22;7672;50.834;6.286;2022-07-04T15:03:23;33.20;57.40
15143;DHT22;7672;50.834;6.286;2022-07-04T15:05:50;33.10;57.10
15143;DHT22;7672;50.834;6.286;2022-07-04T15:08:17;33.00;58.00
15143;DHT22;7672;50.834;6.286;2022-07-04T15:10:44;33.00;58.50
15143;DHT22;7672;50.834;6.286;2022-07-04T15:13:27;32.80;58.70
15143;DHT22;7672;50.834;6.286;2022-07-04T15:15:55;32.80;58.40
15143;DHT22;7672;50.834;6.286;2022-07-04T15:18:42;32.70;57.90
15143;DHT22;7672;50.834;6.286;2022-07-04T15:21:09;32.60;59.00
15143;DHT22;7672;50.834;6.286;2022-07-04T15:23:54;32.50;58.50
15143;DHT22;7672;50.834;6.286;2022-07-04T15:26:49;32.40;58.80
15143;DHT22;7672;50.834;6.286;2022-07-04T15:29:22;32.40;58.70
15143;DHT22;7672;50.834;6.286;2022-07-04T15:31:49;32.30;57.60
15143;DHT22;7672;50.834;6.286;2022-07-04T15:34:17;32.20;56.70
15143;DHT22;7672;50.834;6.286;2022-07-04T15:36:45;32.20;56.90
15143;DHT22;7672;50.834;6.286;2022-07-04T15:39:15;32.10;57.90
15143;DHT22;7672;50.834;6.286;2022-07-04T15:41:43;32.00;57.30
15143;DHT22;7672;50.834;6.286;2022-07-04T15:44:11;31.90;58.30
15143;DHT22;7672;50.834;6.286;2022-07-04T15:46:38;31.80;58.10
15143;DHT22;7672;50.834;6.286;2022-07-04T15:49:26;31.70;58.40
15143;DHT22;7672;50.834;6.286;2022-07-04T15:51:53;31.60;58.80
15143;DHT22;7672;50.834;6.286;2022-07-04T15:54:20;31.50;58.70
15143;DHT22;7672;50.834;6.286;2022-07-04T15:56:47;31.40;59.00
15143;DHT22;7672;50.834;6.286;2022-07-04T15:59:13;31.20;60.00
15143;DHT22;7672;50.834;6.286;2022-07-04T16:01:41;31.10;60.10
15143;DHT22;7672;50.834;6.286;2022-07-04T16:04:08;31.00;60.20
15143;DHT22;7672;50.834;6.286;2022-07-04T16:06:35;31.00;60.70
15143;DHT22;7672;50.834;6.286;2022-07-04T16:09:02;30.80;60.50
15143;DHT22;7672;50.834;6.286;2022-07-04T16:11:29;30.80;60.10
15143;DHT22;7672;50.834;6.286;2022-07-04T16:13:56;30.70;60.60
15143;DHT22;7672;50.834;6.286;2022-07-04T16:16:23;30.70;60.50
15143;DHT22;7672;50.834;6.286;2022-07-04T16:18:50;30.70;60.50
15143;DHT22;7672;50.834;6.286;2022-07-04T16:21:17;30.60;60.70
15143;DHT22;7672;50.834;6.286;2022-07-04T16:23:44;30.50;60.50
15143;DHT22;7672;50.834;6.286;2022-07-04T16:26:11;30.40;60.20
15143;DHT22;7672;50.834;6.286;2022-07-04T16:28:38;30.40;60.20
15143;DHT22;7672;50.834;6.286;2022-07-04T16:31:05;30.30;60.30
15143;DHT22;7672;50.834;6.286;2022-07-04T16:33:38;30.30;59.60
15143;DHT22;7672;50.834;6.286;2022-07-04T16:36:05;30.20;60.10
15143;DHT22;7672;50.834;6.286;2022-07-04T16:38:32;30.20;60.60
15143;DHT22;7672;50.834;6.286;2022-07-04T16:40:59;30.20;61.40